Terminal Aerodrome Forecast
Issued by NWS Sterling, VA

Home | Current Version | Previous Version | Text Only | Print | Product List | Glossary On
Versions: 1 2 3 4 5 6 7 8 9 10 11 12 13 14 15 16 17 18 19 20 21 22 23 24 25 26 27 28 29 30 31 32 33 34 35 36 37 38 39 40 41 42 43 44 45 46 47 48 49 50
000
FTUS41 KLWX 220648 AAL
TAFBWI
TAF AMD
KBWI 220648Z 2207/2312 00000KT 1/4SM FG OVC002
     FM221400 00000KT 2SM BR BKN003
     FM221500 00000KT P6SM SCT008
     FM221900 13005KT P6SM SKC
     FM230600 VRB03KT 3SM BR BKN020=

USA.gov is the U.S. government's official web portal to all federal, state and local government web resources and services.